createdAt,value
2023-03-12T00:00:17.653Z,1.59
2023-03-12T00:03:55.573Z,1.68
2023-03-12T00:07:19.516Z,1.61
2023-03-12T00:10:44.985Z,1.55
2023-03-12T00:14:08.858Z,1.46
2023-03-12T00:17:32.974Z,1.46
2023-03-12T00:20:57.262Z,1.59
2023-03-12T00:24:21.717Z,1.60
2023-03-12T00:27:47.437Z,1.45
2023-03-12T00:31:18.964Z,1.53
2023-03-12T00:34:43.001Z,1.42
2023-03-12T00:38:12.906Z,1.37
2023-03-12T00:41:41.612Z,1.31
2023-03-12T00:45:08.436Z,1.32
2023-03-12T00:48:33.655Z,1.25
2023-03-12T00:52:10.326Z,1.20
2023-03-12T00:55:36.246Z,1.17
2023-03-12T00:59:03.951Z,1.11
2023-03-12T01:02:29.195Z,1.11
2023-03-12T01:05:56.054Z,1.04
2023-03-12T01:09:22.437Z,1.02
2023-03-12T01:12:48.548Z,0.87
2023-03-12T01:16:12.987Z,0.92
2023-03-12T01:19:38.266Z,0.99
2023-03-12T01:23:04.628Z,0.98
2023-03-12T01:26:28.722Z,0.89
2023-03-12T01:29:52.669Z,0.98
2023-03-12T01:33:17.166Z,0.80
2023-03-12T01:36:42.474Z,0.86
2023-03-12T01:40:08.042Z,0.76
2023-03-12T01:43:33.725Z,0.82
2023-03-12T01:46:57.941Z,0.84
2023-03-12T01:50:22.195Z,0.61
2023-03-12T01:53:50.416Z,0.78
2023-03-12T01:57:18.350Z,0.70
2023-03-12T02:00:45.478Z,0.73
2023-03-12T02:04:10.752Z,0.68
2023-03-12T02:07:40.328Z,0.66
2023-03-12T02:11:06.698Z,0.55
2023-03-12T02:14:30.534Z,0.47
2023-03-12T02:17:54.733Z,0.52
2023-03-12T02:21:21.212Z,0.56
2023-03-12T02:24:47.331Z,0.53
2023-03-12T02:28:17.158Z,0.48
2023-03-12T02:31:43.806Z,0.33
2023-03-12T02:35:08.986Z,0.31
2023-03-12T02:38:45.040Z,0.34
2023-03-12T02:42:09.220Z,0.25
2023-03-12T02:45:35.750Z,0.28
2023-03-12T02:49:01.450Z,0.09
2023-03-12T02:56:12.374Z,0.10
2023-03-12T03:03:15.859Z,-0.16
2023-03-12T03:06:52.310Z,-0.29
2023-03-12T03:10:17.765Z,-0.22
2023-03-12T03:13:43.456Z,-0.20
2023-03-12T03:17:09.677Z,-0.24
2023-03-12T03:20:35.850Z,0.03
2023-03-12T03:23:59.908Z,-0.23
2023-03-12T03:27:23.984Z,-0.32
2023-03-12T03:30:48.951Z,-0.14
2023-03-12T03:34:13.815Z,-0.38
2023-03-12T03:37:39.285Z,-0.14
2023-03-12T03:41:03.809Z,-0.24
2023-03-12T03:44:27.997Z,-0.41
2023-03-12T03:47:52.290Z,-0.30
2023-03-12T03:51:16.622Z,-0.63
2023-03-12T03:54:43.113Z,-0.81
2023-03-12T03:58:07.312Z,-0.54
2023-03-12T04:01:31.801Z,-0.91
2023-03-12T04:05:01.336Z,-1.15
2023-03-12T04:08:25.300Z,-1.18
2023-03-12T04:11:51.182Z,-0.50
2023-03-12T04:15:15.649Z,-0.30
2023-03-12T04:18:40.599Z,-0.53
2023-03-12T04:22:04.926Z,-0.37
2023-03-12T04:25:29.718Z,-0.80
2023-03-12T04:28:55.423Z,-0.45
2023-03-12T04:32:20.133Z,-0.46
2023-03-12T04:35:52.703Z,-0.48
2023-03-12T04:39:22.300Z,-0.93
2023-03-12T04:42:49.181Z,-0.79
2023-03-12T04:46:17.039Z,-1.03
2023-03-12T04:49:48.407Z,-1.10
2023-03-12T04:53:13.636Z,-1.32
2023-03-12T04:56:37.928Z,-1.22
2023-03-12T05:00:02.247Z,-0.88
2023-03-12T05:03:32.455Z,-1.30
2023-03-12T05:07:01.954Z,-1.19
2023-03-12T05:10:29.724Z,-1.47
2023-03-12T05:13:54.634Z,-1.39
2023-03-12T05:17:41.469Z,-1.34
2023-03-12T05:21:08.904Z,-1.30
2023-03-12T05:24:35.399Z,-1.32
2023-03-12T05:27:59.840Z,-1.25
2023-03-12T05:34:49.345Z,-1.32
2023-03-12T05:38:14.816Z,-1.49
2023-03-12T05:41:41.085Z,-1.28
2023-03-12T05:45:07.843Z,-1.00
2023-03-12T05:48:33.056Z,-1.04
2023-03-12T05:51:57.499Z,-0.81
2023-03-12T05:55:23.884Z,-0.82
2023-03-12T05:58:50.523Z,-0.83
2023-03-12T06:02:14.861Z,-0.81
2023-03-12T06:05:39.698Z,-0.71
2023-03-12T06:09:04.317Z,-0.85
2023-03-12T06:12:30.859Z,-0.59
2023-03-12T06:15:54.829Z,-0.51
2023-03-12T06:19:19.327Z,-0.34
2023-03-12T06:22:43.725Z,-0.22
2023-03-12T06:26:10.747Z,-0.03
2023-03-12T06:29:36.393Z,0.13
2023-03-12T06:33:00.869Z,0.32
2023-03-12T06:36:25.097Z,0.57
2023-03-12T06:39:53.873Z,0.71
2023-03-12T06:43:18.240Z,0.88
2023-03-12T06:46:44.962Z,0.84
2023-03-12T06:50:09.101Z,1.03
2023-03-12T06:53:33.789Z,1.17
2023-03-12T06:56:59.986Z,1.23
2023-03-12T07:00:25.235Z,1.38
2023-03-12T07:03:50.938Z,1.64
2023-03-12T07:07:15.869Z,1.79
2023-03-12T07:10:39.761Z,1.95
2023-03-12T07:14:04.245Z,2.02
2023-03-12T07:17:28.304Z,2.30
2023-03-12T07:20:53.952Z,2.30
2023-03-12T07:24:17.831Z,2.50
2023-03-12T07:27:44.870Z,2.61
2023-03-12T07:31:10.623Z,3.00
2023-03-12T07:34:35.317Z,3.14
2023-03-12T07:38:01.293Z,3.02
2023-03-12T07:41:30.071Z,3.10
2023-03-12T07:44:54.398Z,3.04
2023-03-12T07:48:20.339Z,3.42
2023-03-12T07:51:46.923Z,3.76
2023-03-12T07:55:13.065Z,3.84
2023-03-12T07:58:46.592Z,4.02
2023-03-12T08:02:12.073Z,3.99
2023-03-12T08:05:36.898Z,4.45
2023-03-12T08:09:00.753Z,4.86
2023-03-12T08:12:26.812Z,5.38
2023-03-12T08:15:50.853Z,5.86
2023-03-12T08:19:15.549Z,6.42
2023-03-12T08:22:39.934Z,6.00
2023-03-12T08:26:07.919Z,6.82
2023-03-12T08:29:34.048Z,7.15
2023-03-12T08:32:58.761Z,7.59
2023-03-12T08:36:23.576Z,7.94
2023-03-12T08:39:51.524Z,8.85
2023-03-12T08:43:15.276Z,8.18
2023-03-12T08:46:41.102Z,7.82
2023-03-12T08:50:05.377Z,8.55
2023-03-12T08:53:29.510Z,9.07
2023-03-12T08:56:53.627Z,8.65
2023-03-12T09:00:18.895Z,9.31
2023-03-12T09:03:44.648Z,9.76
2023-03-12T09:07:10.172Z,9.18
2023-03-12T09:10:34.125Z,10.40
2023-03-12T09:14:33.477Z,10.02
2023-03-12T09:17:42.209Z,9.74
2023-03-12T09:21:08.495Z,10.97
2023-03-12T09:24:32.453Z,10.04
2023-03-12T09:27:58.709Z,11.16
2023-03-12T09:31:22.829Z,11.45
2023-03-12T09:34:47.090Z,10.69
2023-03-12T09:38:14.785Z,11.24
2023-03-12T09:41:43.551Z,11.06
2023-03-12T09:45:13.017Z,10.54
2023-03-12T09:48:50.767Z,11.87
2023-03-12T09:56:11.920Z,12.40
2023-03-12T09:59:45.280Z,11.60
2023-03-12T10:03:21.604Z,11.41
2023-03-12T10:06:47.807Z,12.03
2023-03-12T10:10:22.768Z,12.51
2023-03-12T10:13:55.147Z,12.59
2023-03-12T10:17:32.737Z,13.05
2023-03-12T10:21:12.101Z,12.66
2023-03-12T10:24:44.278Z,12.75
2023-03-12T10:28:14.629Z,13.80
2023-03-12T10:31:43.283Z,12.86
2023-03-12T10:35:16.558Z,13.00
2023-03-12T10:38:56.814Z,12.36
2023-03-12T10:42:22.308Z,13.81
2023-03-12T10:45:52.180Z,13.48
2023-03-12T10:49:31.826Z,13.15
2023-03-12T10:53:23.053Z,13.85
2023-03-12T10:56:51.657Z,13.58
2023-03-12T11:00:21.286Z,13.18
2023-03-12T11:03:50.613Z,13.88
2023-03-12T11:07:28.683Z,14.68
2023-03-12T11:10:53.572Z,13.87
2023-03-12T11:14:39.821Z,14.40
2023-03-12T11:18:32.547Z,14.26
2023-03-12T11:22:00.435Z,14.65
2023-03-12T11:25:27.322Z,13.66
2023-03-12T11:28:52.412Z,14.04
2023-03-12T11:32:22.422Z,14.38
2023-03-12T11:35:50.106Z,14.80
2023-03-12T11:39:23.028Z,14.94
2023-03-12T11:43:11.176Z,13.91
2023-03-12T11:46:48.529Z,14.51
2023-03-12T11:50:25.744Z,14.43
2023-03-12T11:54:44.681Z,15.08
2023-03-12T11:58:39.597Z,14.80
2023-03-12T12:02:13.885Z,14.61
2023-03-12T12:05:50.498Z,14.47
2023-03-12T12:09:20.376Z,14.73
2023-03-12T12:12:50.996Z,14.92
2023-03-12T12:17:07.724Z,14.90
2023-03-12T12:20:40.415Z,14.04
2023-03-12T12:24:18.271Z,15.08
2023-03-12T12:27:58.700Z,15.46
2023-03-12T12:31:32.097Z,14.89
2023-03-12T12:35:08.604Z,14.88
2023-03-12T12:38:35.168Z,16.29
2023-03-12T12:42:00.248Z,15.73
2023-03-12T12:45:24.780Z,15.38
2023-03-12T12:48:52.204Z,15.06
2023-03-12T12:52:30.920Z,14.57
2023-03-12T12:56:08.189Z,15.96
2023-03-12T12:59:38.459Z,15.11
2023-03-12T13:03:03.779Z,15.39
2023-03-12T13:06:30.914Z,15.76
2023-03-12T13:10:01.661Z,15.76
2023-03-12T13:13:29.313Z,16.14
2023-03-12T13:17:03.948Z,16.60
2023-03-12T13:20:40.663Z,16.03
2023-03-12T13:24:21.410Z,16.30
2023-03-12T13:27:47.862Z,15.36
2023-03-12T13:31:47.598Z,15.38
2023-03-12T13:35:31.885Z,15.84
2023-03-12T13:39:01.163Z,16.24
2023-03-12T13:42:36.847Z,14.04
2023-03-12T13:46:06.554Z,14.71
2023-03-12T13:49:37.279Z,15.03
2023-03-12T13:53:06.739Z,16.46
2023-03-12T13:56:33.586Z,15.46
2023-03-12T14:00:02.521Z,15.82
2023-03-12T14:03:37.491Z,15.35
2023-03-12T14:07:35.757Z,15.57
2023-03-12T14:11:13.572Z,16.23
2023-03-12T14:14:59.512Z,16.01
2023-03-12T14:18:31.454Z,15.86
2023-03-12T14:22:05.000Z,16.99
2023-03-12T14:25:38.382Z,15.06
2023-03-12T14:29:31.112Z,14.81
2023-03-12T14:33:20.779Z,13.97
2023-03-12T14:36:50.880Z,14.49
2023-03-12T14:40:28.425Z,14.97
2023-03-12T14:43:57.130Z,15.37
2023-03-12T14:47:22.476Z,14.83
2023-03-12T14:50:49.258Z,15.18
2023-03-12T14:54:24.525Z,14.32
2023-03-12T14:58:10.097Z,15.80
2023-03-12T15:01:40.541Z,15.51
2023-03-12T15:05:06.435Z,15.83
2023-03-12T15:08:30.702Z,15.09
2023-03-12T15:12:02.333Z,13.81
2023-03-12T15:15:46.823Z,13.34
2023-03-12T15:19:17.567Z,13.07
2023-03-12T15:22:43.338Z,13.14
2023-03-12T15:26:14.484Z,12.65
2023-03-12T15:29:42.675Z,11.76
2023-03-12T15:33:17.708Z,11.81
2023-03-12T15:36:51.280Z,11.66
2023-03-12T15:40:22.845Z,11.35
2023-03-12T15:43:53.659Z,11.66
2023-03-12T15:47:31.515Z,11.64
2023-03-12T15:51:04.525Z,10.82
2023-03-12T15:54:33.892Z,11.36
2023-03-12T15:57:59.505Z,11.59
2023-03-12T16:01:29.526Z,11.96
2023-03-12T16:04:56.173Z,11.78
2023-03-12T16:08:27.196Z,11.50
2023-03-12T16:11:54.931Z,10.41
2023-03-12T16:15:47.945Z,9.35
2023-03-12T16:19:17.087Z,8.62
2023-03-12T16:22:42.121Z,8.23
2023-03-12T16:26:11.715Z,7.89
2023-03-12T16:29:48.029Z,7.84
2023-03-12T16:33:20.888Z,7.82
2023-03-12T16:36:46.287Z,7.42
2023-03-12T16:40:16.370Z,7.27
2023-03-12T16:43:50.633Z,7.22
2023-03-12T16:47:23.134Z,6.94
2023-03-12T16:50:56.911Z,6.96
2023-03-12T16:54:26.542Z,6.75
2023-03-12T16:57:56.458Z,6.70
2023-03-12T17:01:32.906Z,6.57
2023-03-12T17:04:59.082Z,6.70
2023-03-12T17:08:27.066Z,6.75
2023-03-12T17:11:56.776Z,6.85
2023-03-12T17:15:34.103Z,6.62
2023-03-12T17:19:03.072Z,6.39
2023-03-12T17:22:35.453Z,6.58
2023-03-12T17:26:01.170Z,6.50
2023-03-12T17:29:28.124Z,6.38
2023-03-12T17:32:54.637Z,6.67
2023-03-12T17:40:23.163Z,6.43
2023-03-12T17:43:49.551Z,6.10
2023-03-12T17:47:16.852Z,5.94
2023-03-12T17:50:49.527Z,6.16
2023-03-12T17:54:28.712Z,6.25
2023-03-12T17:57:57.203Z,5.82
2023-03-12T18:01:25.158Z,5.81
2023-03-12T18:04:52.799Z,5.46
2023-03-12T18:08:21.365Z,5.77
2023-03-12T18:11:51.256Z,5.38
2023-03-12T18:15:20.639Z,5.39
2023-03-12T18:19:01.842Z,5.49
2023-03-12T18:23:00.303Z,5.22
2023-03-12T18:26:54.456Z,5.00
2023-03-12T18:30:24.492Z,5.15
2023-03-12T18:34:06.535Z,4.69
2023-03-12T18:37:36.476Z,4.68
2023-03-12T18:41:11.326Z,4.69
2023-03-12T18:44:42.193Z,4.31
2023-03-12T18:48:56.523Z,4.32
2023-03-12T18:52:24.787Z,3.73
2023-03-12T18:55:59.647Z,3.42
2023-03-12T18:59:28.066Z,3.57
2023-03-12T19:02:58.116Z,3.39
2023-03-12T19:06:44.315Z,3.29
2023-03-12T19:10:19.041Z,3.36
2023-03-12T19:13:51.123Z,3.34
2023-03-12T19:17:37.511Z,3.20
2023-03-12T19:21:05.884Z,3.31
2023-03-12T19:24:32.456Z,3.00
2023-03-12T19:28:07.478Z,3.28
2023-03-12T19:31:39.504Z,2.87
2023-03-12T19:35:09.644Z,2.95
2023-03-12T19:38:39.209Z,2.65
2023-03-12T19:42:06.315Z,2.67
2023-03-12T19:45:37.407Z,2.79
2023-03-12T19:49:08.813Z,2.67
2023-03-12T19:52:37.278Z,2.91
2023-03-12T19:56:04.729Z,2.86
2023-03-12T19:59:31.710Z,2.35
2023-03-12T20:03:14.363Z,2.39
2023-03-12T20:06:41.162Z,2.39
2023-03-12T20:10:09.051Z,2.39
2023-03-12T20:13:38.981Z,2.43
2023-03-12T20:17:04.239Z,2.30
2023-03-12T20:20:32.958Z,2.33
2023-03-12T20:24:00.729Z,2.31
2023-03-12T20:27:30.053Z,2.28
2023-03-12T20:30:59.477Z,2.26
2023-03-12T20:34:26.737Z,2.40
2023-03-12T20:37:59.990Z,2.41
2023-03-12T20:41:28.416Z,2.14
2023-03-12T20:44:56.272Z,2.08
2023-03-12T20:48:33.895Z,2.06
2023-03-12T20:52:01.057Z,2.31
2023-03-12T20:55:29.303Z,2.25
2023-03-12T20:58:58.001Z,1.89
2023-03-12T21:02:26.020Z,1.61
2023-03-12T21:05:59.403Z,1.58
2023-03-12T21:09:28.312Z,1.62
2023-03-12T21:12:58.427Z,2.14
2023-03-12T21:16:29.197Z,2.33
2023-03-12T21:20:00.934Z,2.01
2023-03-12T21:23:25.994Z,2.04
2023-03-12T21:26:50.128Z,2.32
2023-03-12T21:30:25.202Z,2.61
2023-03-12T21:33:50.061Z,2.81
2023-03-12T21:37:30.243Z,2.76
2023-03-12T21:40:58.084Z,2.74
2023-03-12T21:44:22.840Z,2.94
2023-03-12T21:47:47.785Z,2.75
2023-03-12T21:51:15.699Z,2.44
2023-03-12T21:54:42.551Z,2.43
2023-03-12T21:58:08.434Z,2.69
2023-03-12T22:01:33.164Z,2.69
2023-03-12T22:05:05.426Z,2.89
2023-03-12T22:08:29.332Z,3.01
2023-03-12T22:11:53.519Z,2.90
2023-03-12T22:15:17.895Z,3.53
2023-03-12T22:18:42.391Z,3.41
2023-03-12T22:22:08.014Z,3.29
2023-03-12T22:25:36.603Z,3.06
2023-03-12T22:29:03.872Z,3.19
2023-03-12T22:32:28.421Z,3.09
2023-03-12T22:35:52.788Z,3.52
2023-03-12T22:39:18.605Z,3.35
2023-03-12T22:42:42.747Z,3.49
2023-03-12T22:46:07.111Z,3.63
2023-03-12T22:49:34.306Z,3.73
2023-03-12T22:52:58.496Z,3.59
2023-03-12T22:56:23.897Z,3.57
2023-03-12T22:59:49.632Z,3.83
2023-03-12T23:03:13.525Z,3.81
2023-03-12T23:06:38.009Z,3.97
2023-03-12T23:10:01.823Z,3.86
2023-03-12T23:13:27.591Z,3.81
2023-03-12T23:16:51.875Z,3.88
2023-03-12T23:20:16.566Z,4.06
2023-03-12T23:23:42.373Z,3.98
2023-03-12T23:27:07.032Z,4.27
2023-03-12T23:30:36.747Z,4.47
2023-03-12T23:34:02.364Z,4.62
2023-03-12T23:37:27.456Z,4.43
2023-03-12T23:40:53.257Z,4.57
2023-03-12T23:44:20.542Z,4.58
2023-03-12T23:47:47.430Z,5.00
2023-03-12T23:51:14.526Z,4.92
2023-03-12T23:54:39.177Z,5.32
2023-03-12T23:58:05.900Z,5.32
